Time;durP1;ratioP1;P1;durP2;ratioP2;P2;SDS_P1;SDS_P2;PMS_P1;PMS_P2;Temp;Humidity;BMP_temperature;BMP_pressure;BME280_temperature;BME280_humidity;BME280_pressure;Samples;Min_cycle;Max_cycle;Signal;HPM_P1;HPM_P2
2021/03/01 00:00:16;;;;;;;21.87;15.25;;;;;;;4.45;86.42;102149.83;2745895;86;21188;-62
2021/03/01 00:04:21;;;;;;;21.97;12.53;;;;;;;4.55;86.65;102149.13;2745593;86;21176;-60
2021/03/01 00:08:26;;;;;;;18.42;15.40;;;;;;;4.70;86.59;102158.39;2745771;86;21144;-62
2021/03/01 00:12:29;;;;;;;22.35;16.30;;;;;;;4.82;86.03;102147.95;2765489;85;21597;-62
2021/03/01 00:16:32;;;;;;;22.62;16.85;;;;;;;4.81;85.38;102147.07;2763618;86;21179;-61
2021/03/01 00:20:36;;;;;;;27.37;17.87;;;;;;;4.79;85.80;102153.31;2804132;84;21186;-62
2021/03/01 00:24:39;;;;;;;26.20;16.87;;;;;;;4.77;85.55;102145.91;2785557;84;21192;-62
2021/03/01 00:28:42;;;;;;;31.12;18.57;;;;;;;4.78;85.53;102143.67;2758184;85;21167;-62
2021/03/01 00:32:46;;;;;;;30.97;18.00;;;;;;;4.81;85.95;102139.16;2761526;86;21148;-62
2021/03/01 00:36:51;;;;;;;24.55;16.12;;;;;;;4.89;85.87;102130.19;2761560;86;21188;-61
2021/03/01 00:40:55;;;;;;;20.65;15.20;;;;;;;4.95;85.79;102125.61;2761588;86;21148;-64
2021/03/01 00:44:58;;;;;;;21.17;14.33;;;;;;;4.95;85.43;102118.14;2761646;86;21200;-62
2021/03/01 00:49:02;;;;;;;23.57;17.05;;;;;;;4.94;85.54;102109.81;2761901;86;21088;-63
2021/03/01 00:53:06;;;;;;;26.77;17.50;;;;;;;4.94;85.67;102109.38;2761496;86;21163;-62
2021/03/01 00:57:09;;;;;;;30.50;19.37;;;;;;;4.97;85.82;102110.60;2761546;86;21199;-60
2021/03/01 01:01:12;;;;;;;24.63;18.00;;;;;;;4.99;85.83;102114.05;2761368;86;21171;-63
2021/03/01 01:05:16;;;;;;;27.65;21.02;;;;;;;5.02;86.07;102103.00;2784929;84;21107;-62
2021/03/01 01:09:19;;;;;;;22.13;17.95;;;;;;;5.11;85.83;102092.16;2802344;85;21170;-61
2021/03/01 01:13:26;;;;;;;26.00;17.73;;;;;;;5.22;85.75;102103.74;2801993;85;21183;-61
2021/03/01 01:17:29;;;;;;;27.67;19.42;;;;;;;5.29;85.24;102114.04;2755110;85;21621;-63
2021/03/01 01:21:32;;;;;;;27.80;18.50;;;;;;;5.38;85.22;102108.94;2750980;86;21161;-63
2021/03/01 01:25:37;;;;;;;33.28;20.97;;;;;;;5.45;84.75;102103.02;2751163;86;21157;-61
2021/03/01 01:29:41;;;;;;;42.95;27.17;;;;;;;5.50;84.53;102100.24;2750884;86;21634;-60
2021/03/01 01:33:44;;;;;;;39.23;22.67;;;;;;;5.53;84.22;102115.98;2750774;86;21181;-60
2021/03/01 01:37:48;;;;;;;29.57;17.42;;;;;;;5.61;84.08;102121.02;2750954;86;22363;-62
2021/03/01 01:41:53;;;;;;;29.07;17.12;;;;;;;5.67;83.82;102142.82;2751296;86;21161;-61
2021/03/01 01:45:58;;;;;;;24.15;16.62;;;;;;;5.72;83.59;102134.77;2750923;86;21189;-61
2021/03/01 01:50:05;;;;;;;33.13;18.07;;;;;;;5.76;83.34;102128.46;2718291;86;21199;-60
2021/03/01 01:54:10;;;;;;;32.25;19.35;;;;;;;5.79;83.22;102129.67;2631004;90;21199;-62
2021/03/01 01:58:14;;;;;;;24.80;16.65;;;;;;;5.83;82.91;102119.42;2629568;90;21188;-62
2021/03/01 02:02:18;;;;;;;26.90;18.32;;;;;;;5.83;82.63;102115.93;2631358;90;21188;-61
2021/03/01 02:06:50;;;;;;;22.30;15.43;;;;;;;5.80;82.55;102116.88;2631245;90;21195;-64
2021/03/01 02:11:09;;;;;;;25.32;17.15;;;;;;;5.79;82.62;102113.83;2667972;89;21128;-62
2021/03/01 02:15:52;;;;;;;27.80;17.30;;;;;;;5.84;82.37;102105.77;2652381;89;21140;-61
2021/03/01 02:19:55;;;;;;;22.60;17.07;;;;;;;5.82;82.21;102107.13;2673623;89;21164;-61
2021/03/01 02:24:02;;;;;;;30.67;19.83;;;;;;;5.67;82.26;102103.66;2662044;89;21203;-61
2021/03/01 02:28:10;;;;;;;24.63;16.45;;;;;;;5.57;82.73;102106.60;2631182;89;21199;-63
2021/03/01 02:32:19;;;;;;;30.77;17.87;;;;;;;5.55;82.85;102091.71;2599678;90;21190;-62
2021/03/01 02:36:29;;;;;;;29.82;17.50;;;;;;;5.56;82.76;102090.36;2598913;91;21205;-60
2021/03/01 02:40:33;;;;;;;25.68;17.75;;;;;;;5.58;83.07;102092.48;2598264;91;21189;-61
2021/03/01 02:44:39;;;;;;;23.85;17.30;;;;;;;5.67;83.04;102092.66;2598645;91;21450;-62
2021/03/01 02:48:43;;;;;;;26.12;16.25;;;;;;;5.71;82.71;102079.75;2598572;91;21200;-61
2021/03/01 02:52:48;;;;;;;27.10;15.65;;;;;;;5.73;82.50;102082.35;2598502;91;21671;-64
2021/03/01 02:56:54;;;;;;;23.95;15.50;;;;;;;5.73;82.62;102075.75;2598588;91;21230;-63
2021/03/01 03:01:19;;;;;;;21.12;14.03;;;;;;;5.77;82.40;102080.02;2574960;91;21153;-63
2021/03/01 03:05:24;;;;;;;27.25;16.82;;;;;;;5.81;82.43;102071.55;2638160;90;21179;-63
2021/03/01 03:09:28;;;;;;;29.12;16.75;;;;;;;5.82;82.24;102076.75;2678958;88;21194;-62
2021/03/01 03:13:34;;;;;;;28.60;19.42;;;;;;;5.83;82.28;102077.63;2681191;88;21193;-62
2021/03/01 03:17:39;;;;;;;29.00;18.35;;;;;;;5.87;82.42;102080.57;2722893;87;21172;-60
2021/03/01 03:21:46;;;;;;;29.00;17.62;;;;;;;5.89;82.41;102084.47;2723025;87;21179;-62
2021/03/01 03:25:49;;;;;;;37.65;20.55;;;;;;;5.92;82.29;102083.07;2722723;87;21171;-61
2021/03/01 03:29:53;;;;;;;31.57;18.17;;;;;;;5.94;82.47;102084.72;2696798;87;21651;-62
2021/03/01 03:33:56;;;;;;;28.42;18.32;;;;;;;5.99;82.46;102076.66;2722668;87;21140;-61
2021/03/01 03:38:17;;;;;;;35.85;20.43;;;;;;;6.00;82.24;102069.12;2722598;87;21559;-64
2021/03/01 03:42:24;;;;;;;31.10;20.92;;;;;;;6.03;82.36;102072.17;2744418;86;21180;-61
2021/03/01 03:46:31;;;;;;;24.75;19.87;;;;;;;6.06;82.28;102070.73;2767493;86;21179;-63
2021/03/01 03:50:38;;;;;;;23.12;18.27;;;;;;;6.14;82.03;102074.84;2767520;86;21629;-62
2021/03/01 03:54:48;;;;;;;29.20;16.93;;;;;;;6.21;81.65;102078.14;2767789;86;21156;-61
2021/03/01 03:59:06;;;;;;;30.95;20.40;;;;;;;6.20;81.53;102076.86;2767848;86;21175;-61
2021/03/01 04:03:14;;;;;;;32.88;18.00;;;;;;;6.20;81.73;102071.58;2764226;85;21168;-62
2021/03/01 04:07:23;;;;;;;27.87;18.65;;;;;;;6.18;81.62;102082.66;2712214;87;21155;-61
2021/03/01 04:11:28;;;;;;;28.50;17.23;;;;;;;6.09;81.57;102084.72;2759224;85;21484;-61
2021/03/01 04:15:31;;;;;;;24.40;16.67;;;;;;;6.05;82.13;102083.55;2711995;87;21179;-60
2021/03/01 04:19:36;;;;;;;32.53;18.48;;;;;;;6.00;82.30;102087.63;2759199;86;21137;-62
2021/03/01 04:23:43;;;;;;;24.50;16.82;;;;;;;5.94;82.46;102091.33;2711944;87;21652;-61
2021/03/01 04:27:46;;;;;;;31.15;18.48;;;;;;;5.89;82.68;102091.95;2759215;86;21740;-61
2021/03/01 04:31:52;;;;;;;21.33;15.10;;;;;;;5.84;83.08;102092.09;2690089;87;21147;-62
2021/03/01 04:35:57;;;;;;;27.50;17.80;;;;;;;5.88;83.24;102082.73;2759664;86;21164;-60
2021/03/01 04:40:02;;;;;;;25.10;18.98;;;;;;;5.93;83.14;102087.44;2712421;87;21633;-62
2021/03/01 04:44:11;;;;;;;23.50;15.53;;;;;;;5.96;83.17;102086.00;2759193;86;21170;-61
2021/03/01 04:48:16;;;;;;;28.95;16.67;;;;;;;6.00;82.85;102087.63;2757137;85;21130;-61
2021/03/01 04:52:22;;;;;;;31.75;18.62;;;;;;;6.02;82.91;102077.05;2711836;87;21227;-59
2021/03/01 04:56:26;;;;;;;21.85;16.27;;;;;;;6.05;82.84;102073.82;2758015;86;21757;-58
2021/03/01 05:00:32;;;;;;;25.80;16.37;;;;;;;6.09;82.69;102064.02;2704146;87;21194;-58
2021/03/01 05:04:37;;;;;;;23.55;16.77;;;;;;;6.10;82.68;102072.36;2762532;84;21128;-60
2021/03/01 05:08:43;;;;;;;21.73;14.75;;;;;;;6.16;82.58;102072.61;2764972;86;21144;-60
2021/03/01 05:12:46;;;;;;;23.20;15.60;;;;;;;6.17;82.00;102076.50;2764634;85;21555;-59
2021/03/01 05:16:51;;;;;;;25.70;16.05;;;;;;;6.12;82.27;102074.48;2786836;84;21535;-60
2021/03/01 05:20:56;;;;;;;26.40;15.25;;;;;;;6.08;82.48;102075.03;2765087;86;21189;-59
2021/03/01 05:24:59;;;;;;;32.90;16.17;;;;;;;6.03;82.60;102073.49;2767287;84;21168;-59
2021/03/01 05:29:04;;;;;;;22.35;14.63;;;;;;;5.99;82.81;102073.56;2765500;86;21635;-58
2021/03/01 05:33:07;;;;;;;24.05;15.60;;;;;;;5.99;82.76;102084.58;2763405;86;21168;-60
2021/03/01 05:37:11;;;;;;;27.27;18.20;;;;;;;5.98;82.71;102079.73;2761362;86;21197;-59
2021/03/01 05:41:39;;;;;;;20.80;13.83;;;;;;;5.95;82.67;102078.52;2763911;86;21776;-60
2021/03/01 05:45:45;;;;;;;19.73;13.25;;;;;;;5.95;82.78;102093.53;2735361;85;21188;-60
2021/03/01 05:49:49;;;;;;;17.73;11.43;;;;;;;5.98;82.66;102106.62;2747660;85;21659;-59
2021/03/01 05:53:57;;;;;;;18.10;10.50;;;;;;;6.00;82.41;102106.99;2749813;85;21217;-60
2021/03/01 05:58:02;;;;;;;19.70;11.83;;;;;;;5.96;82.34;102111.10;2773886;85;21172;-59
2021/03/01 06:02:07;;;;;;;18.12;10.40;;;;;;;5.89;82.20;102109.55;2780004;85;21173;-59
2021/03/01 06:06:12;;;;;;;18.77;13.38;;;;;;;5.94;82.48;102119.54;2743914;86;21651;-58
2021/03/01 06:10:16;;;;;;;18.40;14.45;;;;;;;5.96;82.41;102121.19;2756812;85;21151;-59
2021/03/01 06:14:20;;;;;;;19.10;11.57;;;;;;;6.07;82.58;102127.95;2775911;85;21636;-60
2021/03/01 06:18:24;;;;;;;33.80;14.85;;;;;;;6.21;82.25;102130.12;2754238;85;21653;-58
2021/03/01 06:22:46;;;;;;;26.42;17.05;;;;;;;6.33;81.91;102127.07;2773683;85;21165;-61
2021/03/01 06:26:55;;;;;;;21.52;13.75;;;;;;;6.42;81.97;102128.05;2791234;85;21180;-60
2021/03/01 06:30:59;;;;;;;24.67;14.43;;;;;;;6.52;81.33;102130.39;2754958;86;21178;-60
2021/03/01 06:35:08;;;;;;;20.82;12.73;;;;;;;6.60;81.01;102133.62;2772110;85;21187;-60
2021/03/01 06:39:16;;;;;;;21.17;12.30;;;;;;;6.59;80.79;102139.83;2729255;86;21174;-60
2021/03/01 06:43:20;;;;;;;26.33;11.50;;;;;;;6.56;80.30;102144.75;2724397;85;21618;-61
2021/03/01 06:47:44;;;;;;;23.05;11.35;;;;;;;6.46;80.24;102148.65;2717051;87;21141;-58
2021/03/01 06:51:51;;;;;;;21.85;14.55;;;;;;;6.35;80.39;102153.42;2694265;88;21187;-59
2021/03/01 06:56:02;;;;;;;14.15;9.20;;;;;;;6.32;81.06;102149.13;2692148;88;21194;-59
2021/03/01 07:00:07;;;;;;;15.40;11.57;;;;;;;6.33;80.94;102156.14;2690887;88;21181;-60
2021/03/01 07:04:32;;;;;;;10.72;8.58;;;;;;;6.36;80.93;102162.64;2704798;87;21197;-59
2021/03/01 07:08:40;;;;;;;20.45;12.05;;;;;;;6.36;80.67;102160.44;2701390;87;21193;-59
2021/03/01 07:12:48;;;;;;;17.73;11.25;;;;;;;6.38;80.43;102171.38;2688305;86;21166;-60
2021/03/01 07:17:00;;;;;;;13.35;10.40;;;;;;;6.41;80.08;102173.06;2684734;88;21188;-61
2021/03/01 07:21:04;;;;;;;16.48;11.75;;;;;;;6.45;80.15;102170.72;2689086;86;21213;-59
2021/03/01 07:25:11;;;;;;;16.48;10.85;;;;;;;6.52;79.84;102175.34;2688253;88;21224;-61
2021/03/01 07:29:17;;;;;;;15.48;10.48;;;;;;;6.53;79.56;102173.95;2722344;86;21214;-60
2021/03/01 07:33:21;;;;;;;16.55;10.85;;;;;;;6.67;79.34;102176.11;2673471;87;21189;-59
2021/03/01 07:37:24;;;;;;;12.10;9.40;;;;;;;6.75;79.26;102179.80;2730759;86;21204;-59
2021/03/01 07:41:29;;;;;;;20.90;11.55;;;;;;;6.80;79.44;102179.20;2739151;85;21211;-59
2021/03/01 07:45:33;;;;;;;20.75;13.62;;;;;;;6.84;78.76;102182.58;2712927;87;21202;-61
2021/03/01 07:49:48;;;;;;;19.80;9.63;;;;;;;6.89;79.19;102185.07;2714148;87;21669;-60
2021/03/01 07:53:53;;;;;;;15.03;10.93;;;;;;;6.94;78.83;102198.55;2712493;87;21665;-60
2021/03/01 07:58:05;;;;;;;20.17;13.58;;;;;;;7.05;78.62;102194.63;2714463;87;21160;-63
2021/03/01 08:02:16;;;;;;;18.40;10.28;;;;;;;7.04;78.16;102196.88;2712781;87;21645;-60
2021/03/01 08:06:21;;;;;;;25.15;16.62;;;;;;;7.07;78.35;102195.44;2699889;87;21185;-59
2021/03/01 08:10:35;;;;;;;18.10;11.60;;;;;;;7.08;77.46;102193.22;2710279;86;21194;-58
2021/03/01 08:14:59;;;;;;;25.45;15.68;;;;;;;7.06;77.75;102200.33;2714000;87;21180;-60
2021/03/01 08:19:02;;;;;;;21.95;13.38;;;;;;;7.04;77.61;102203.48;2714224;87;21692;-60
2021/03/01 08:23:10;;;;;;;22.85;12.10;;;;;;;7.09;77.29;102219.61;2714256;87;21189;-62
2021/03/01 08:27:39;;;;;;;22.00;10.98;;;;;;;7.08;76.88;102215.24;2712803;87;21204;-60
2021/03/01 08:31:43;;;;;;;22.55;14.25;;;;;;;7.13;77.49;102217.25;2714018;86;21197;-60
2021/03/01 08:35:49;;;;;;;18.52;11.88;;;;;;;7.15;76.90;102227.80;2696593;87;21189;-58
2021/03/01 08:39:58;;;;;;;37.63;21.00;;;;;;;7.10;76.63;102229.28;2720820;87;21217;-59
2021/03/01 08:44:02;;;;;;;43.20;14.73;;;;;;;7.12;77.44;102235.86;2712892;87;21197;-58
2021/03/01 08:48:12;;;;;;;23.22;13.30;;;;;;;7.16;77.02;102230.84;2688913;87;21192;-60
2021/03/01 08:52:19;;;;;;;25.68;17.80;;;;;;;7.18;76.82;102239.59;2707911;87;21511;-57
2021/03/01 08:56:25;;;;;;;32.15;19.50;;;;;;;7.30;77.18;102235.62;2708800;87;21157;-57
2021/03/01 09:00:32;;;;;;;17.05;13.10;;;;;;;7.44;76.97;102240.41;2709372;87;21201;-60
2021/03/01 09:04:35;;;;;;;19.80;14.10;;;;;;;7.49;76.47;102245.09;2675301;88;21202;-58
2021/03/01 09:08:45;;;;;;;34.45;22.02;;;;;;;7.56;76.13;102239.95;2635017;90;21632;-58
2021/03/01 09:12:48;;;;;;;27.73;18.07;;;;;;;7.56;75.68;102247.02;2646418;88;21207;-61
2021/03/01 09:16:54;;;;;;;31.68;21.62;;;;;;;7.49;75.64;102245.54;2645226;89;21197;-58
2021/03/01 09:20:58;;;;;;;25.68;18.17;;;;;;;7.43;74.70;102246.18;2709376;87;21198;-59
2021/03/01 09:25:01;;;;;;;26.37;17.52;;;;;;;7.44;75.84;102247.03;2679641;88;21196;-57
2021/03/01 09:29:13;;;;;;;32.48;21.42;;;;;;;7.62;76.24;102247.25;2674517;88;21173;-59
2021/03/01 09:33:23;;;;;;;35.15;24.20;;;;;;;7.73;75.13;102239.78;2668129;88;30158;-58
2021/03/01 09:37:26;;;;;;;20.72;14.90;;;;;;;7.67;74.78;102241.34;2670889;88;21196;-61
2021/03/01 09:41:37;;;;;;;30.70;22.70;;;;;;;7.63;74.66;102245.02;2676966;88;21226;-59
2021/03/01 09:45:40;;;;;;;31.10;21.62;;;;;;;7.50;74.70;102248.59;2726193;86;21186;-59
2021/03/01 09:49:46;;;;;;;22.93;15.28;;;;;;;7.51;75.67;102251.64;2722442;86;21212;-61
2021/03/01 09:53:49;;;;;;;25.37;17.05;;;;;;;7.64;75.94;102237.02;2717595;86;21192;-60
2021/03/01 09:57:52;;;;;;;26.70;18.23;;;;;;;7.77;75.85;102245.35;2749291;86;21134;-61
2021/03/01 10:02:16;;;;;;;20.17;13.93;;;;;;;7.93;75.59;102235.01;2728489;86;21141;-60
2021/03/01 10:06:32;;;;;;;22.50;16.20;;;;;;;8.04;75.17;102237.70;2705205;88;21144;-60
2021/03/01 10:10:41;;;;;;;23.75;18.10;;;;;;;8.08;73.68;102240.63;2704991;87;21141;-59
2021/03/01 10:14:46;;;;;;;25.50;18.95;;;;;;;8.09;73.99;102242.35;2705063;88;21145;-63
2021/03/01 10:18:49;;;;;;;23.85;17.07;;;;;;;8.18;74.26;102237.14;2721644;86;21153;-62
2021/03/01 10:23:06;;;;;;;24.07;14.90;;;;;;;8.15;72.67;102237.67;2718721;86;21132;-63
2021/03/01 10:27:14;;;;;;;30.35;18.15;;;;;;;7.96;72.62;102240.66;2737235;86;21130;-61
2021/03/01 10:31:19;;;;;;;23.77;14.43;;;;;;;7.91;73.71;102234.69;2727766;86;21214;-62
2021/03/01 10:35:22;;;;;;;19.27;13.08;;;;;;;8.02;74.35;102244.38;2729639;86;21197;-62
2021/03/01 10:39:30;;;;;;;24.75;16.55;;;;;;;8.15;73.52;102240.77;2732431;86;21187;-61
2021/03/01 10:43:33;;;;;;;23.45;18.07;;;;;;;8.15;73.64;102237.67;2740685;85;21188;-62
2021/03/01 10:47:36;;;;;;;25.45;17.73;;;;;;;8.26;73.44;102243.02;2747174;86;21607;-63
2021/03/01 10:51:41;;;;;;;23.35;15.53;;;;;;;8.26;72.63;102238.56;2710729;86;21217;-64
2021/03/01 10:55:44;;;;;;;22.87;16.65;;;;;;;8.39;73.60;102248.20;2692231;87;21172;-61
2021/03/01 10:59:51;;;;;;;21.52;15.55;;;;;;;8.51;73.03;102236.24;2710342;87;21165;-61
2021/03/01 11:03:53;;;;;;;28.62;19.45;;;;;;;8.60;71.99;102238.97;2705585;87;21184;-62
2021/03/01 11:07:56;;;;;;;27.60;17.80;;;;;;;8.71;72.53;102237.19;2711370;87;21129;-61
2021/03/01 11:12:05;;;;;;;20.85;16.20;;;;;;;8.63;71.26;102240.64;2711685;87;21137;-62
2021/03/01 11:16:08;;;;;;;27.40;17.27;;;;;;;8.47;71.48;102239.08;2700646;87;21157;-62
2021/03/01 11:20:12;;;;;;;27.42;17.23;;;;;;;8.39;71.63;102244.70;2711665;87;21527;-60
2021/03/01 11:24:15;;;;;;;21.60;16.30;;;;;;;8.36;71.60;102241.70;2718141;87;21124;-61
2021/03/01 11:28:20;;;;;;;25.20;18.48;;;;;;;8.37;71.96;102243.42;2712081;87;21105;-61
2021/03/01 11:32:22;;;;;;;26.82;19.40;;;;;;;8.59;72.74;102240.38;2711426;87;21172;-58
2021/03/01 11:36:28;;;;;;;31.27;17.27;;;;;;;8.71;72.06;102248.68;2713046;87;21663;-60
2021/03/01 11:40:31;;;;;;;30.62;21.00;;;;;;;8.75;71.97;102244.56;2708350;87;21204;-59
2021/03/01 11:44:34;;;;;;;37.25;23.40;;;;;;;8.90;72.17;102253.20;2695467;87;21156;-58
2021/03/01 11:48:39;;;;;;;33.53;24.12;;;;;;;9.06;71.15;102241.91;2694810;88;21130;-60
2021/03/01 11:52:42;;;;;;;36.00;24.17;;;;;;;9.05;71.14;102238.87;2694268;88;21584;-59
2021/03/01 11:56:45;;;;;;;27.98;18.35;;;;;;;9.04;70.79;102233.13;2693465;88;21145;-61
2021/03/01 12:00:48;;;;;;;28.20;20.95;;;;;;;9.06;70.51;102236.61;2694048;88;21163;-60
2021/03/01 12:04:53;;;;;;;33.98;21.42;;;;;;;9.12;70.38;102238.98;2690226;88;21141;-58
2021/03/01 12:08:56;;;;;;;33.78;22.87;;;;;;;9.29;70.31;102228.47;2682240;88;21149;-60
2021/03/01 12:13:00;;;;;;;32.10;20.95;;;;;;;9.38;70.55;102223.66;2690729;88;21138;-61
2021/03/01 12:17:03;;;;;;;28.02;18.73;;;;;;;9.44;69.75;102218.08;2687785;87;21908;-61
2021/03/01 12:21:07;;;;;;;30.48;20.85;;;;;;;9.41;70.06;102210.22;2694690;87;21102;-60
2021/03/01 12:25:12;;;;;;;33.83;23.20;;;;;;;9.44;69.83;102211.44;2724535;86;21175;-60
2021/03/01 12:29:14;;;;;;;32.48;22.93;;;;;;;9.35;69.60;102215.38;2721037;86;21135;-61
2021/03/01 12:33:18;;;;;;;29.77;22.70;;;;;;;9.32;69.30;102215.48;2717187;87;21154;-59
2021/03/01 12:37:21;;;;;;;30.97;22.70;;;;;;;9.40;69.19;102207.17;2719068;87;21194;-61
2021/03/01 12:41:25;;;;;;;32.13;21.87;;;;;;;9.35;68.48;102203.88;2722918;86;21182;-61
2021/03/01 12:45:32;;;;;;;33.15;23.77;;;;;;;9.31;69.75;102193.00;2726847;86;21133;-63
2021/03/01 12:49:35;;;;;;;33.78;24.25;;;;;;;9.37;69.86;102187.40;2724420;87;21110;-61
2021/03/01 12:53:39;;;;;;;44.83;24.85;;;;;;;9.32;69.48;102192.07;2715072;87;21186;-60
2021/03/01 12:57:41;;;;;;;36.30;22.17;;;;;;;9.33;69.18;102193.31;2714524;86;21135;-60
2021/03/01 13:01:55;;;;;;;23.75;15.70;;;;;;;9.28;69.40;102188.69;2711665;87;21159;-61
2021/03/01 13:05:58;;;;;;;35.43;22.25;;;;;;;9.20;69.27;102189.03;2701034;87;21210;-61
2021/03/01 13:10:05;;;;;;;31.07;21.97;;;;;;;9.04;69.10;102191.98;2715568;86;21138;-60
2021/03/01 13:14:08;;;;;;;31.02;24.30;;;;;;;8.98;70.02;102193.98;2712182;87;21229;-62
2021/03/01 13:18:11;;;;;;;31.52;22.25;;;;;;;8.97;69.71;102190.09;2714207;87;21195;-60
2021/03/01 13:22:14;;;;;;;27.82;19.23;;;;;;;9.05;69.47;102185.77;2715443;87;21113;-58
2021/03/01 13:26:18;;;;;;;28.98;18.65;;;;;;;9.12;69.61;102190.70;2714423;87;21597;-58
2021/03/01 13:30:22;;;;;;;29.35;21.33;;;;;;;9.24;68.70;102174.70;2717597;87;21145;-60
2021/03/01 13:34:27;;;;;;;31.07;19.23;;;;;;;9.13;68.86;102178.31;2715650;87;21183;-61
2021/03/01 13:38:30;;;;;;;28.85;20.60;;;;;;;9.20;68.92;102177.08;2711573;87;21147;-59
2021/03/01 13:42:38;;;;;;;36.50;23.70;;;;;;;9.24;68.50;102174.70;2708173;87;21159;-60
2021/03/01 13:46:40;;;;;;;34.20;24.32;;;;;;;9.36;68.67;102170.62;2706757;87;21152;-60
2021/03/01 13:50:43;;;;;;;39.80;23.10;;;;;;;9.50;68.65;102167.31;2698206;87;21230;-59
2021/03/01 13:54:47;;;;;;;29.42;20.70;;;;;;;9.47;68.20;102165.25;2697976;87;21160;-59
2021/03/01 13:58:50;;;;;;;35.25;24.18;;;;;;;9.41;68.46;102161.08;2696136;86;21682;-60
2021/03/01 14:02:53;;;;;;;34.63;22.90;;;;;;;9.38;68.09;102155.92;2701841;87;21592;-61
2021/03/01 14:06:57;;;;;;;36.40;25.60;;;;;;;9.40;68.82;102160.69;2701819;87;21151;-60
2021/03/01 14:11:00;;;;;;;32.28;20.85;;;;;;;9.42;68.87;102162.35;2711893;87;21580;-60
2021/03/01 14:15:07;;;;;;;34.63;22.62;;;;;;;9.42;69.29;102162.80;2709163;87;21556;-60
2021/03/01 14:19:29;;;;;;;29.70;22.75;;;;;;;9.45;69.86;102156.05;2702454;87;21180;-60
2021/03/01 14:23:32;;;;;;;33.25;23.52;;;;;;;9.48;69.83;102150.58;2757102;85;21161;-62
2021/03/01 14:27:36;;;;;;;41.40;28.10;;;;;;;9.50;69.42;102161.99;2765895;85;21189;-60
2021/03/01 14:31:39;;;;;;;34.05;25.17;;;;;;;9.53;69.14;102159.19;2754377;85;21165;-60
2021/03/01 14:35:44;;;;;;;30.65;20.90;;;;;;;9.56;69.10;102156.86;2750813;85;21157;-60
2021/03/01 14:39:48;;;;;;;34.30;21.48;;;;;;;9.58;68.45;102160.30;2753703;85;21140;-58
2021/03/01 14:43:52;;;;;;;31.70;23.77;;;;;;;9.42;69.10;102154.38;2706814;85;21177;-59
2021/03/01 14:47:55;;;;;;;35.03;24.95;;;;;;;9.52;69.08;102160.13;2705712;87;21572;-61
2021/03/01 14:51:59;;;;;;;43.75;26.90;;;;;;;9.40;68.40;102156.70;2741888;85;21927;-61
2021/03/01 14:56:02;;;;;;;35.08;26.48;;;;;;;9.25;68.56;102153.86;2748084;86;21206;-60
2021/03/01 15:00:06;;;;;;;36.45;25.23;;;;;;;9.30;68.62;102156.27;2747798;86;21183;-61
2021/03/01 15:04:12;;;;;;;31.75;21.20;;;;;;;9.35;68.46;102151.63;2744254;86;21183;-60
2021/03/01 15:08:16;;;;;;;33.98;21.52;;;;;;;9.40;68.55;102152.27;2746494;86;21197;-60
2021/03/01 15:12:20;;;;;;;35.33;24.85;;;;;;;9.49;68.63;102145.66;2736889;85;21607;-59
2021/03/01 15:16:24;;;;;;;32.75;26.95;;;;;;;9.58;68.45;102145.69;2743841;86;21174;-60
2021/03/01 15:20:27;;;;;;;180.18;124.85;;;;;;;9.66;68.39;102141.34;2743103;86;21147;-61
2021/03/01 15:24:30;;;;;;;115.67;75.17;;;;;;;9.73;68.03;102137.44;2724183;85;21128;-60
2021/03/01 15:28:36;;;;;;;53.45;34.35;;;;;;;9.68;67.77;102140.80;2750023;85;21687;-60
2021/03/01 15:32:39;;;;;;;134.60;81.02;;;;;;;9.49;67.88;102135.03;2745246;85;21141;-61
2021/03/01 15:36:44;;;;;;;174.18;101.60;;;;;;;9.19;68.38;102134.20;2781452;85;21169;-60
2021/03/01 15:40:50;;;;;;;59.88;40.35;;;;;;;8.97;69.52;102134.36;2781117;85;21137;-61
2021/03/01 15:44:52;;;;;;;;;;;;;;;8.85;69.98;102130.47;2751875;85;22172;-60
2021/03/01 15:48:56;;;;;;;42.83;25.62;;;;;;;8.81;70.50;102124.87;2761671;85;20271;-60
2021/03/01 15:53:01;;;;;;;31.80;23.65;;;;;;;8.65;70.00;102118.08;2750589;85;21200;-64
2021/03/01 15:57:05;;;;;;;136.43;88.50;;;;;;;8.52;70.65;102119.09;2774989;85;21149;-62
2021/03/01 16:01:11;;;;;;;75.35;48.75;;;;;;;8.52;71.03;102109.80;2689395;88;21158;-61
2021/03/01 16:05:15;;;;;;;83.63;57.07;;;;;;;8.52;71.37;102112.45;2770666;85;21133;-62
2021/03/01 16:09:17;;;;;;;46.95;31.85;;;;;;;8.45;71.33;102111.83;2759527;85;21121;-63
2021/03/01 16:13:23;;;;;;;116.82;76.53;;;;;;;8.35;71.59;102112.69;2689361;88;21198;-61
2021/03/01 16:17:26;;;;;;;122.05;74.15;;;;;;;8.22;71.54;102122.97;2763427;85;21579;-62
2021/03/01 16:21:29;;;;;;;71.80;42.05;;;;;;;8.01;71.89;102123.39;2769754;85;21643;-61
2021/03/01 16:25:33;;;;;;;98.55;55.38;;;;;;;7.76;72.70;102127.06;2725512;87;21621;-62
2021/03/01 16:29:37;;;;;;;93.47;61.30;;;;;;;7.60;73.37;102125.95;2807689;84;21169;-61
2021/03/01 16:33:41;;;;;;;223.17;150.13;;;;;;;7.47;73.62;102124.25;2805758;84;21145;-61
2021/03/01 16:37:45;;;;;;;350.80;234.25;;;;;;;7.34;73.86;102123.88;2807785;84;21137;-60
2021/03/01 16:41:48;;;;;;;241.23;157.30;;;;;;;7.22;74.19;102115.47;2807688;84;21601;-62
2021/03/01 16:45:52;;;;;;;235.25;159.78;;;;;;;7.13;74.23;102114.52;2807316;84;22104;-60
2021/03/01 16:49:59;;;;;;;240.72;149.05;;;;;;;6.97;74.25;102115.08;2807718;84;21443;-61
2021/03/01 16:54:02;;;;;;;;;;;;;;;6.79;74.85;102113.12;2810258;84;21615;-59
2021/03/01 16:58:07;;;;;;;142.82;92.80;;;;;;;6.66;74.99;102121.48;2808006;84;20189;-64
2021/03/01 17:02:10;;;;;;;121.25;74.65;;;;;;;6.51;75.33;102116.30;2807377;84;21619;-66
2021/03/01 17:06:19;;;;;;;196.02;109.20;;;;;;;6.38;75.99;102118.95;2808089;84;21160;-66
2021/03/01 17:10:24;;;;;;;130.52;75.62;;;;;;;6.23;76.86;102116.39;2806948;84;21193;-65
2021/03/01 17:14:35;;;;;;;118.10;65.17;;;;;;;6.04;77.14;102122.30;2807672;84;21161;-63
2021/03/01 17:18:39;;;;;;;96.35;58.98;;;;;;;5.96;77.46;102124.31;2807729;84;21184;-64
2021/03/01 17:22:46;;;;;;;99.03;50.70;;;;;;;5.86;77.81;102124.59;2807467;83;21599;-61
2021/03/01 17:26:49;;;;;;;87.30;48.85;;;;;;;5.81;77.64;102124.36;2807404;84;21173;-63
2021/03/01 17:30:52;;;;;;;117.75;57.78;;;;;;;5.69;78.27;102120.31;2782107;84;21173;-61
2021/03/01 17:34:55;;;;;;;84.85;49.55;;;;;;;5.60;79.33;102131.17;2808234;84;21347;-62
2021/03/01 17:39:00;;;;;;;117.45;79.40;;;;;;;5.50;79.75;102124.87;2807802;84;21165;-61
2021/03/01 17:43:03;;;;;;;105.80;78.05;;;;;;;5.40;80.02;102133.98;2807795;83;21144;-60
2021/03/01 17:47:30;;;;;;;94.67;56.77;;;;;;;5.24;80.34;102127.84;2807629;84;21169;-61
2021/03/01 17:51:39;;;;;;;;;;;;;;;5.14;80.82;102128.56;2798791;84;21137;-61
2021/03/01 17:56:16;;;;;;;88.45;52.90;;;;;;;5.07;81.13;102130.10;2804031;84;20881;-61
2021/03/01 18:00:21;;;;;;;122.37;74.90;;;;;;;5.00;81.29;102125.02;2807699;84;21122;-63
2021/03/01 18:04:28;;;;;;;97.75;55.20;;;;;;;4.95;81.32;102129.56;2807679;84;21150;-61
2021/03/01 18:08:37;;;;;;;153.87;89.32;;;;;;;4.86;81.74;102119.27;2807817;84;21193;-62
2021/03/01 18:12:42;;;;;;;196.57;114.50;;;;;;;4.77;81.14;102119.54;2806860;84;21540;-64
2021/03/01 18:16:46;;;;;;;234.62;138.88;;;;;;;4.68;81.34;102124.61;2803398;84;21173;-61
2021/03/01 18:20:58;;;;;;;179.50;104.85;;;;;;;4.62;82.39;102119.48;2761969;85;21255;-62
2021/03/01 18:25:09;;;;;;;132.93;77.80;;;;;;;4.63;82.93;102116.82;2817217;84;21194;-60
2021/03/01 18:29:13;;;;;;;110.78;64.92;;;;;;;4.68;82.90;102124.14;2815584;84;21172;-62
2021/03/01 18:33:38;;;;;;;109.32;66.55;;;;;;;4.68;82.86;102125.45;2814822;84;21133;-60
2021/03/01 18:38:27;;;;;;;169.70;105.83;;;;;;;4.69;82.82;102129.83;2815454;84;21157;-60
2021/03/01 18:42:37;;;;;;;182.00;107.37;;;;;;;4.69;82.50;102131.61;2815878;84;21147;-60
2021/03/01 18:46:44;;;;;;;152.57;96.08;;;;;;;4.65;82.90;102125.55;2817487;84;21111;-60
2021/03/01 18:50:48;;;;;;;197.55;121.72;;;;;;;4.68;82.96;102129.88;2817360;84;21177;-60